sensor_id;sensor_type;location;lat;lon;timestamp;P1;durP1;ratioP1;P2;durP2;ratioP2
8466;SDS011;4270;48.148;11.648;2023-07-28T00:00:24;5.10;;;3.70;;
8466;SDS011;4270;48.148;11.648;2023-07-28T00:02:49;5.90;;;3.57;;
8466;SDS011;4270;48.148;11.648;2023-07-28T00:05:14;8.70;;;4.07;;
8466;SDS011;4270;48.148;11.648;2023-07-28T00:07:39;8.47;;;4.03;;
8466;SDS011;4270;48.148;11.648;2023-07-28T00:10:05;4.87;;;3.03;;
8466;SDS011;4270;48.148;11.648;2023-07-28T00:12:30;5.40;;;3.50;;
8466;SDS011;4270;48.148;11.648;2023-07-28T00:14:55;8.60;;;4.00;;
8466;SDS011;4270;48.148;11.648;2023-07-28T00:17:20;5.90;;;3.20;;
8466;SDS011;4270;48.148;11.648;2023-07-28T00:19:46;4.03;;;3.63;;
8466;SDS011;4270;48.148;11.648;2023-07-28T00:22:11;4.73;;;3.43;;
8466;SDS011;4270;48.148;11.648;2023-07-28T00:24:36;4.60;;;3.40;;
8466;SDS011;4270;48.148;11.648;2023-07-28T00:27:01;4.73;;;3.77;;
8466;SDS011;4270;48.148;11.648;2023-07-28T00:29:27;7.57;;;3.73;;
8466;SDS011;4270;48.148;11.648;2023-07-28T00:31:52;5.60;;;3.83;;
8466;SDS011;4270;48.148;11.648;2023-07-28T00:34:18;4.57;;;3.83;;
8466;SDS011;4270;48.148;11.648;2023-07-28T00:36:43;4.53;;;3.60;;
8466;SDS011;4270;48.148;11.648;2023-07-28T00:39:08;6.37;;;3.13;;
8466;SDS011;4270;48.148;11.648;2023-07-28T00:41:33;5.57;;;3.40;;
8466;SDS011;4270;48.148;11.648;2023-07-28T00:43:59;5.10;;;3.30;;
8466;SDS011;4270;48.148;11.648;2023-07-28T00:46:24;5.87;;;4.40;;
8466;SDS011;4270;48.148;11.648;2023-07-28T00:48:49;3.97;;;3.57;;
8466;SDS011;4270;48.148;11.648;2023-07-28T00:51:14;4.63;;;3.53;;
8466;SDS011;4270;48.148;11.648;2023-07-28T00:53:40;5.50;;;3.77;;
8466;SDS011;4270;48.148;11.648;2023-07-28T00:56:05;4.10;;;3.20;;
8466;SDS011;4270;48.148;11.648;2023-07-28T00:58:31;3.23;;;2.70;;
8466;SDS011;4270;48.148;11.648;2023-07-28T01:00:56;4.30;;;3.20;;
8466;SDS011;4270;48.148;11.648;2023-07-28T01:03:21;5.53;;;3.30;;
8466;SDS011;4270;48.148;11.648;2023-07-28T01:05:50;4.00;;;3.00;;
8466;SDS011;4270;48.148;11.648;2023-07-28T01:08:22;3.50;;;3.20;;
8466;SDS011;4270;48.148;11.648;2023-07-28T01:10:50;3.80;;;3.40;;
8466;SDS011;4270;48.148;11.648;2023-07-28T01:13:15;4.53;;;3.27;;
8466;SDS011;4270;48.148;11.648;2023-07-28T01:15:41;4.23;;;2.90;;
8466;SDS011;4270;48.148;11.648;2023-07-28T01:18:06;4.33;;;3.37;;
8466;SDS011;4270;48.148;11.648;2023-07-28T01:20:31;4.93;;;3.20;;
8466;SDS011;4270;48.148;11.648;2023-07-28T01:23:05;5.10;;;3.20;;
8466;SDS011;4270;48.148;11.648;2023-07-28T01:28:12;4.50;;;3.27;;
8466;SDS011;4270;48.148;11.648;2023-07-28T01:30:37;4.10;;;3.00;;
8466;SDS011;4270;48.148;11.648;2023-07-28T01:33:05;5.17;;;3.03;;
8466;SDS011;4270;48.148;11.648;2023-07-28T01:35:30;3.50;;;3.20;;
8466;SDS011;4270;48.148;11.648;2023-07-28T01:37:56;2.80;;;2.50;;
8466;SDS011;4270;48.148;11.648;2023-07-28T01:40:21;5.60;;;3.13;;
8466;SDS011;4270;48.148;11.648;2023-07-28T01:42:46;5.00;;;3.00;;
8466;SDS011;4270;48.148;11.648;2023-07-28T01:45:12;3.67;;;2.93;;
8466;SDS011;4270;48.148;11.648;2023-07-28T01:47:37;4.00;;;2.70;;
8466;SDS011;4270;48.148;11.648;2023-07-28T01:50:02;2.83;;;2.53;;
8466;SDS011;4270;48.148;11.648;2023-07-28T01:52:27;3.27;;;2.77;;
8466;SDS011;4270;48.148;11.648;2023-07-28T01:54:53;2.93;;;2.63;;
8466;SDS011;4270;48.148;11.648;2023-07-28T01:57:18;4.37;;;2.93;;
8466;SDS011;4270;48.148;11.648;2023-07-28T01:59:43;3.23;;;2.57;;
8466;SDS011;4270;48.148;11.648;2023-07-28T02:02:09;3.93;;;2.70;;
8466;SDS011;4270;48.148;11.648;2023-07-28T02:04:34;2.93;;;2.63;;
8466;SDS011;4270;48.148;11.648;2023-07-28T02:06:59;2.60;;;2.40;;
8466;SDS011;4270;48.148;11.648;2023-07-28T02:09:24;3.10;;;2.70;;
8466;SDS011;4270;48.148;11.648;2023-07-28T02:11:50;3.50;;;2.87;;
8466;SDS011;4270;48.148;11.648;2023-07-28T02:14:15;2.53;;;2.30;;
8466;SDS011;4270;48.148;11.648;2023-07-28T02:16:40;3.67;;;3.07;;
8466;SDS011;4270;48.148;11.648;2023-07-28T02:19:05;3.53;;;2.60;;
8466;SDS011;4270;48.148;11.648;2023-07-28T02:21:31;2.70;;;2.40;;
8466;SDS011;4270;48.148;11.648;2023-07-28T02:23:56;2.97;;;2.30;;
8466;SDS011;4270;48.148;11.648;2023-07-28T02:26:21;3.47;;;2.77;;
8466;SDS011;4270;48.148;11.648;2023-07-28T02:28:47;2.97;;;2.63;;
8466;SDS011;4270;48.148;11.648;2023-07-28T02:31:12;2.60;;;2.40;;
8466;SDS011;4270;48.148;11.648;2023-07-28T02:33:37;2.47;;;2.27;;
8466;SDS011;4270;48.148;11.648;2023-07-28T02:36:05;5.27;;;2.47;;
8466;SDS011;4270;48.148;11.648;2023-07-28T02:38:30;4.90;;;2.20;;
8466;SDS011;4270;48.148;11.648;2023-07-28T02:40:55;2.77;;;2.40;;
8466;SDS011;4270;48.148;11.648;2023-07-28T02:43:20;2.60;;;2.40;;
8466;SDS011;4270;48.148;11.648;2023-07-28T02:45:53;3.00;;;2.60;;
8466;SDS011;4270;48.148;11.648;2023-07-28T02:48:18;4.93;;;2.47;;
8466;SDS011;4270;48.148;11.648;2023-07-28T02:50:46;4.17;;;2.40;;
8466;SDS011;4270;48.148;11.648;2023-07-28T02:53:12;3.67;;;2.37;;
8466;SDS011;4270;48.148;11.648;2023-07-28T02:55:41;3.97;;;2.63;;
8466;SDS011;4270;48.148;11.648;2023-07-28T02:58:06;2.97;;;2.33;;
8466;SDS011;4270;48.148;11.648;2023-07-28T03:00:31;2.70;;;2.10;;
8466;SDS011;4270;48.148;11.648;2023-07-28T03:02:57;3.93;;;2.50;;
8466;SDS011;4270;48.148;11.648;2023-07-28T03:05:22;2.47;;;2.17;;
8466;SDS011;4270;48.148;11.648;2023-07-28T03:07:47;3.13;;;2.60;;
8466;SDS011;4270;48.148;11.648;2023-07-28T03:10:13;3.77;;;2.63;;
8466;SDS011;4270;48.148;11.648;2023-07-28T03:12:41;3.23;;;2.90;;
8466;SDS011;4270;48.148;11.648;2023-07-28T03:15:06;3.07;;;2.00;;
8466;SDS011;4270;48.148;11.648;2023-07-28T03:17:32;4.03;;;2.27;;
8466;SDS011;4270;48.148;11.648;2023-07-28T03:19:57;2.20;;;2.00;;
8466;SDS011;4270;48.148;11.648;2023-07-28T03:22:22;2.50;;;1.93;;
8466;SDS011;4270;48.148;11.648;2023-07-28T03:24:48;2.83;;;2.30;;
8466;SDS011;4270;48.148;11.648;2023-07-28T03:27:13;3.07;;;2.77;;
8466;SDS011;4270;48.148;11.648;2023-07-28T03:29:38;6.50;;;2.30;;
8466;SDS011;4270;48.148;11.648;2023-07-28T03:32:03;2.43;;;1.87;;
8466;SDS011;4270;48.148;11.648;2023-07-28T03:34:29;2.80;;;2.17;;
8466;SDS011;4270;48.148;11.648;2023-07-28T03:36:54;3.30;;;2.50;;
8466;SDS011;4270;48.148;11.648;2023-07-28T03:39:19;3.20;;;2.10;;
8466;SDS011;4270;48.148;11.648;2023-07-28T03:41:45;2.20;;;1.80;;
8466;SDS011;4270;48.148;11.648;2023-07-28T03:44:10;2.93;;;2.40;;
8466;SDS011;4270;48.148;11.648;2023-07-28T03:46:35;2.37;;;2.07;;
8466;SDS011;4270;48.148;11.648;2023-07-28T03:49:01;2.43;;;2.23;;
8466;SDS011;4270;48.148;11.648;2023-07-28T03:51:26;2.80;;;2.53;;
8466;SDS011;4270;48.148;11.648;2023-07-28T03:53:51;2.87;;;2.30;;
8466;SDS011;4270;48.148;11.648;2023-07-28T03:56:16;3.00;;;2.37;;
8466;SDS011;4270;48.148;11.648;2023-07-28T03:58:41;2.60;;;2.00;;
8466;SDS011;4270;48.148;11.648;2023-07-28T04:01:07;2.53;;;2.20;;
8466;SDS011;4270;48.148;11.648;2023-07-28T04:03:34;2.87;;;2.33;;
8466;SDS011;4270;48.148;11.648;2023-07-28T04:06:00;3.50;;;2.57;;
8466;SDS011;4270;48.148;11.648;2023-07-28T04:08:25;3.50;;;2.20;;
8466;SDS011;4270;48.148;11.648;2023-07-28T04:10:50;2.97;;;2.20;;
8466;SDS011;4270;48.148;11.648;2023-07-28T04:13:16;2.13;;;1.93;;
8466;SDS011;4270;48.148;11.648;2023-07-28T04:15:41;3.57;;;2.70;;
8466;SDS011;4270;48.148;11.648;2023-07-28T04:18:06;2.97;;;2.20;;
8466;SDS011;4270;48.148;11.648;2023-07-28T04:20:32;4.83;;;2.80;;
8466;SDS011;4270;48.148;11.648;2023-07-28T04:22:57;4.33;;;2.37;;
8466;SDS011;4270;48.148;11.648;2023-07-28T04:25:22;3.30;;;2.37;;
8466;SDS011;4270;48.148;11.648;2023-07-28T04:27:47;3.07;;;2.77;;
8466;SDS011;4270;48.148;11.648;2023-07-28T04:30:13;2.50;;;2.30;;
8466;SDS011;4270;48.148;11.648;2023-07-28T04:32:38;3.27;;;2.30;;
8466;SDS011;4270;48.148;11.648;2023-07-28T04:35:03;3.70;;;2.40;;
8466;SDS011;4270;48.148;11.648;2023-07-28T04:37:30;4.80;;;2.40;;
8466;SDS011;4270;48.148;11.648;2023-07-28T04:39:55;3.43;;;2.40;;
8466;SDS011;4270;48.148;11.648;2023-07-28T04:42:20;2.80;;;2.33;;
8466;SDS011;4270;48.148;11.648;2023-07-28T04:44:46;4.00;;;2.23;;
8466;SDS011;4270;48.148;11.648;2023-07-28T04:47:11;2.70;;;2.40;;
8466;SDS011;4270;48.148;11.648;2023-07-28T04:49:36;2.90;;;2.30;;
8466;SDS011;4270;48.148;11.648;2023-07-28T04:52:02;2.70;;;2.33;;
8466;SDS011;4270;48.148;11.648;2023-07-28T04:54:27;2.77;;;2.00;;
8466;SDS011;4270;48.148;11.648;2023-07-28T04:56:52;3.17;;;2.33;;
8466;SDS011;4270;48.148;11.648;2023-07-28T04:59:18;5.33;;;2.50;;
8466;SDS011;4270;48.148;11.648;2023-07-28T05:01:43;4.20;;;2.50;;
8466;SDS011;4270;48.148;11.648;2023-07-28T05:04:08;3.93;;;2.87;;
8466;SDS011;4270;48.148;11.648;2023-07-28T05:06:34;2.97;;;2.33;;
8466;SDS011;4270;48.148;11.648;2023-07-28T05:08:59;3.20;;;2.20;;
8466;SDS011;4270;48.148;11.648;2023-07-28T05:11:24;2.53;;;2.33;;
8466;SDS011;4270;48.148;11.648;2023-07-28T05:13:49;4.30;;;2.97;;
8466;SDS011;4270;48.148;11.648;2023-07-28T05:16:14;3.30;;;2.43;;
8466;SDS011;4270;48.148;11.648;2023-07-28T05:18:40;4.80;;;2.67;;
8466;SDS011;4270;48.148;11.648;2023-07-28T05:21:07;3.53;;;2.03;;
8466;SDS011;4270;48.148;11.648;2023-07-28T05:23:33;3.07;;;2.20;;
8466;SDS011;4270;48.148;11.648;2023-07-28T05:25:58;3.57;;;2.40;;
8466;SDS011;4270;48.148;11.648;2023-07-28T05:28:23;3.40;;;2.70;;
8466;SDS011;4270;48.148;11.648;2023-07-28T05:30:48;3.60;;;2.63;;
8466;SDS011;4270;48.148;11.648;2023-07-28T05:33:14;2.70;;;2.43;;
8466;SDS011;4270;48.148;11.648;2023-07-28T05:35:39;3.30;;;2.53;;
8466;SDS011;4270;48.148;11.648;2023-07-28T05:38:04;3.60;;;2.50;;
8466;SDS011;4270;48.148;11.648;2023-07-28T05:40:29;2.53;;;2.30;;
8466;SDS011;4270;48.148;11.648;2023-07-28T05:42:55;3.73;;;2.63;;
8466;SDS011;4270;48.148;11.648;2023-07-28T05:45:20;3.10;;;2.67;;
8466;SDS011;4270;48.148;11.648;2023-07-28T05:47:45;3.00;;;2.37;;
8466;SDS011;4270;48.148;11.648;2023-07-28T05:50:11;3.47;;;2.70;;
8466;SDS011;4270;48.148;11.648;2023-07-28T05:52:36;2.97;;;2.17;;
8466;SDS011;4270;48.148;11.648;2023-07-28T05:55:01;6.87;;;2.80;;
8466;SDS011;4270;48.148;11.648;2023-07-28T05:57:26;4.70;;;2.40;;
8466;SDS011;4270;48.148;11.648;2023-07-28T05:59:52;3.13;;;2.70;;
8466;SDS011;4270;48.148;11.648;2023-07-28T06:02:17;2.63;;;2.37;;
8466;SDS011;4270;48.148;11.648;2023-07-28T06:04:42;3.77;;;2.70;;
8466;SDS011;4270;48.148;11.648;2023-07-28T06:07:09;3.23;;;2.60;;
8466;SDS011;4270;48.148;11.648;2023-07-28T06:09:34;3.07;;;2.73;;
8466;SDS011;4270;48.148;11.648;2023-07-28T06:12:00;3.97;;;3.30;;
8466;SDS011;4270;48.148;11.648;2023-07-28T06:14:25;5.10;;;2.73;;
8466;SDS011;4270;48.148;11.648;2023-07-28T06:16:50;3.03;;;2.40;;
8466;SDS011;4270;48.148;11.648;2023-07-28T06:19:17;4.97;;;3.47;;
8466;SDS011;4270;48.148;11.648;2023-07-28T06:21:48;3.30;;;2.70;;
8466;SDS011;4270;48.148;11.648;2023-07-28T06:24:14;3.73;;;2.67;;
8466;SDS011;4270;48.148;11.648;2023-07-28T06:26:39;4.63;;;2.37;;
8466;SDS011;4270;48.148;11.648;2023-07-28T06:29:04;3.43;;;2.77;;
8466;SDS011;4270;48.148;11.648;2023-07-28T06:31:30;3.40;;;2.50;;
8466;SDS011;4270;48.148;11.648;2023-07-28T06:33:56;3.73;;;2.60;;
8466;SDS011;4270;48.148;11.648;2023-07-28T06:36:21;3.63;;;2.27;;
8466;SDS011;4270;48.148;11.648;2023-07-28T06:38:46;3.67;;;2.83;;
8466;SDS011;4270;48.148;11.648;2023-07-28T06:41:14;4.20;;;2.60;;
8466;SDS011;4270;48.148;11.648;2023-07-28T06:43:39;3.60;;;2.93;;
8466;SDS011;4270;48.148;11.648;2023-07-28T06:46:04;2.93;;;2.47;;
8466;SDS011;4270;48.148;11.648;2023-07-28T06:48:30;2.97;;;2.40;;
8466;SDS011;4270;48.148;11.648;2023-07-28T06:50:55;4.57;;;2.87;;
8466;SDS011;4270;48.148;11.648;2023-07-28T06:53:20;3.20;;;2.53;;
8466;SDS011;4270;48.148;11.648;2023-07-28T06:55:45;5.10;;;2.27;;
8466;SDS011;4270;48.148;11.648;2023-07-28T06:58:11;2.37;;;2.17;;
8466;SDS011;4270;48.148;11.648;2023-07-28T07:00:36;3.43;;;2.80;;
8466;SDS011;4270;48.148;11.648;2023-07-28T07:03:01;5.03;;;3.13;;
8466;SDS011;4270;48.148;11.648;2023-07-28T07:05:26;4.60;;;2.87;;
8466;SDS011;4270;48.148;11.648;2023-07-28T07:07:52;3.07;;;2.53;;
8466;SDS011;4270;48.148;11.648;2023-07-28T07:10:17;3.03;;;2.53;;
8466;SDS011;4270;48.148;11.648;2023-07-28T07:12:43;3.10;;;2.63;;
8466;SDS011;4270;48.148;11.648;2023-07-28T07:15:08;3.13;;;2.87;;
8466;SDS011;4270;48.148;11.648;2023-07-28T07:17:34;3.27;;;2.97;;
8466;SDS011;4270;48.148;11.648;2023-07-28T07:19:59;3.10;;;2.20;;
8466;SDS011;4270;48.148;11.648;2023-07-28T07:22:25;3.70;;;2.87;;
8466;SDS011;4270;48.148;11.648;2023-07-28T07:24:50;2.93;;;2.50;;
8466;SDS011;4270;48.148;11.648;2023-07-28T07:27:15;2.73;;;2.37;;
8466;SDS011;4270;48.148;11.648;2023-07-28T07:29:41;3.60;;;2.70;;
8466;SDS011;4270;48.148;11.648;2023-07-28T07:32:06;2.93;;;2.43;;
8466;SDS011;4270;48.148;11.648;2023-07-28T07:34:33;4.40;;;2.43;;
8466;SDS011;4270;48.148;11.648;2023-07-28T07:36:58;3.60;;;2.90;;
8466;SDS011;4270;48.148;11.648;2023-07-28T07:39:23;3.00;;;2.20;;
8466;SDS011;4270;48.148;11.648;2023-07-28T07:41:48;5.57;;;2.70;;
8466;SDS011;4270;48.148;11.648;2023-07-28T07:44:14;3.60;;;2.00;;
8466;SDS011;4270;48.148;11.648;2023-07-28T07:46:39;2.77;;;2.57;;
8466;SDS011;4270;48.148;11.648;2023-07-28T07:49:04;3.00;;;2.70;;
8466;SDS011;4270;48.148;11.648;2023-07-28T07:51:30;2.60;;;2.20;;
8466;SDS011;4270;48.148;11.648;2023-07-28T07:53:56;2.60;;;2.40;;
8466;SDS011;4270;48.148;11.648;2023-07-28T07:56:21;3.20;;;2.50;;
8466;SDS011;4270;48.148;11.648;2023-07-28T07:58:47;3.17;;;2.30;;
8466;SDS011;4270;48.148;11.648;2023-07-28T08:01:12;2.83;;;2.63;;
8466;SDS011;4270;48.148;11.648;2023-07-28T08:03:37;2.27;;;2.07;;
8466;SDS011;4270;48.148;11.648;2023-07-28T08:06:03;5.20;;;2.70;;
8466;SDS011;4270;48.148;11.648;2023-07-28T08:08:28;2.50;;;2.30;;
8466;SDS011;4270;48.148;11.648;2023-07-28T08:10:55;2.63;;;2.43;;
8466;SDS011;4270;48.148;11.648;2023-07-28T08:13:20;4.30;;;2.30;;
8466;SDS011;4270;48.148;11.648;2023-07-28T08:15:45;2.90;;;2.67;;
8466;SDS011;4270;48.148;11.648;2023-07-28T08:18:11;2.67;;;2.47;;
8466;SDS011;4270;48.148;11.648;2023-07-28T08:20:37;2.70;;;2.30;;
8466;SDS011;4270;48.148;11.648;2023-07-28T08:23:02;2.50;;;2.30;;
8466;SDS011;4270;48.148;11.648;2023-07-28T08:25:27;5.13;;;2.97;;
8466;SDS011;4270;48.148;11.648;2023-07-28T08:27:52;2.97;;;2.67;;
8466;SDS011;4270;48.148;11.648;2023-07-28T08:30:18;3.35;;;2.40;;
8466;SDS011;4270;48.148;11.648;2023-07-28T08:32:43;2.72;;;2.40;;
8466;SDS011;4270;48.148;11.648;2023-07-28T08:35:09;2.88;;;2.67;;
8466;SDS011;4270;48.148;11.648;2023-07-28T08:37:34;4.40;;;2.70;;
8466;SDS011;4270;48.148;11.648;2023-07-28T08:39:59;2.70;;;2.50;;
8466;SDS011;4270;48.148;11.648;2023-07-28T08:42:24;2.88;;;2.05;;
8466;SDS011;4270;48.148;11.648;2023-07-28T08:44:50;2.58;;;2.33;;
8466;SDS011;4270;48.148;11.648;2023-07-28T08:47:17;3.47;;;2.80;;
8466;SDS011;4270;48.148;11.648;2023-07-28T08:49:43;3.38;;;2.78;;
8466;SDS011;4270;48.148;11.648;2023-07-28T08:52:09;2.47;;;2.27;;
8466;SDS011;4270;48.148;11.648;2023-07-28T08:54:34;3.00;;;2.50;;
8466;SDS011;4270;48.148;11.648;2023-07-28T08:56:59;2.50;;;2.30;;
8466;SDS011;4270;48.148;11.648;2023-07-28T08:59:25;2.65;;;2.45;;
8466;SDS011;4270;48.148;11.648;2023-07-28T09:01:55;4.07;;;2.25;;
8466;SDS011;4270;48.148;11.648;2023-07-28T09:04:21;2.75;;;2.13;;
8466;SDS011;4270;48.148;11.648;2023-07-28T09:06:47;2.83;;;2.60;;
8466;SDS011;4270;48.148;11.648;2023-07-28T09:09:13;2.50;;;2.30;;
8466;SDS011;4270;48.148;11.648;2023-07-28T09:11:49;5.00;;;2.33;;
8466;SDS011;4270;48.148;11.648;2023-07-28T09:14:15;3.00;;;2.70;;
8466;SDS011;4270;48.148;11.648;2023-07-28T09:16:44;2.50;;;2.30;;
8466;SDS011;4270;48.148;11.648;2023-07-28T09:19:09;3.40;;;2.70;;
8466;SDS011;4270;48.148;11.648;2023-07-28T09:21:35;2.40;;;2.20;;
8466;SDS011;4270;48.148;11.648;2023-07-28T09:24:01;2.13;;;2.03;;
8466;SDS011;4270;48.148;11.648;2023-07-28T09:26:45;3.27;;;2.70;;
8466;SDS011;4270;48.148;11.648;2023-07-28T09:29:14;3.17;;;2.30;;
8466;SDS011;4270;48.148;11.648;2023-07-28T09:31:41;3.27;;;2.37;;
8466;SDS011;4270;48.148;11.648;2023-07-28T09:34:07;4.43;;;2.63;;
8466;SDS011;4270;48.148;11.648;2023-07-28T09:36:33;2.60;;;2.40;;
8466;SDS011;4270;48.148;11.648;2023-07-28T09:38:58;3.40;;;2.50;;
8466;SDS011;4270;48.148;11.648;2023-07-28T09:41:24;2.50;;;2.23;;
8466;SDS011;4270;48.148;11.648;2023-07-28T09:43:50;3.20;;;2.90;;
8466;SDS011;4270;48.148;11.648;2023-07-28T09:46:15;3.73;;;2.80;;
8466;SDS011;4270;48.148;11.648;2023-07-28T09:48:43;4.73;;;3.00;;
8466;SDS011;4270;48.148;11.648;2023-07-28T09:51:14;2.50;;;2.30;;
8466;SDS011;4270;48.148;11.648;2023-07-28T09:53:44;6.70;;;2.47;;
8466;SDS011;4270;48.148;11.648;2023-07-28T09:56:12;3.70;;;2.47;;
8466;SDS011;4270;48.148;11.648;2023-07-28T09:58:39;4.30;;;3.00;;
8466;SDS011;4270;48.148;11.648;2023-07-28T10:01:06;4.17;;;2.73;;
8466;SDS011;4270;48.148;11.648;2023-07-28T10:03:32;3.17;;;2.50;;
8466;SDS011;4270;48.148;11.648;2023-07-28T10:05:57;3.17;;;2.87;;
8466;SDS011;4270;48.148;11.648;2023-07-28T10:08:23;2.60;;;2.40;;
8466;SDS011;4270;48.148;11.648;2023-07-28T10:10:48;3.03;;;2.53;;
8466;SDS011;4270;48.148;11.648;2023-07-28T10:13:20;4.93;;;2.80;;
8466;SDS011;4270;48.148;11.648;2023-07-28T10:15:46;3.00;;;2.70;;
8466;SDS011;4270;48.148;11.648;2023-07-28T10:18:12;3.57;;;2.63;;
8466;SDS011;4270;48.148;11.648;2023-07-28T10:20:38;2.80;;;2.50;;
8466;SDS011;4270;48.148;11.648;2023-07-28T10:25:36;3.00;;;2.60;;
8466;SDS011;4270;48.148;11.648;2023-07-28T10:28:02;3.40;;;2.83;;
8466;SDS011;4270;48.148;11.648;2023-07-28T10:30:27;3.17;;;2.60;;
8466;SDS011;4270;48.148;11.648;2023-07-28T10:32:54;2.70;;;2.27;;
8466;SDS011;4270;48.148;11.648;2023-07-28T10:35:24;2.80;;;2.37;;
8466;SDS011;4270;48.148;11.648;2023-07-28T10:37:50;3.07;;;2.50;;
8466;SDS011;4270;48.148;11.648;2023-07-28T10:42:53;5.10;;;2.80;;
8466;SDS011;4270;48.148;11.648;2023-07-28T10:45:19;3.50;;;2.53;;
8466;SDS011;4270;48.148;11.648;2023-07-28T10:47:45;3.70;;;2.40;;
8466;SDS011;4270;48.148;11.648;2023-07-28T10:50:11;2.77;;;2.40;;
8466;SDS011;4270;48.148;11.648;2023-07-28T10:52:44;4.00;;;2.70;;
8466;SDS011;4270;48.148;11.648;2023-07-28T10:55:16;2.57;;;2.37;;
8466;SDS011;4270;48.148;11.648;2023-07-28T10:57:42;2.80;;;2.60;;
8466;SDS011;4270;48.148;11.648;2023-07-28T11:00:11;3.20;;;2.70;;
8466;SDS011;4270;48.148;11.648;2023-07-28T11:02:58;3.10;;;2.50;;
8466;SDS011;4270;48.148;11.648;2023-07-28T11:05:24;3.10;;;2.73;;
8466;SDS011;4270;48.148;11.648;2023-07-28T11:07:51;3.00;;;2.63;;
8466;SDS011;4270;48.148;11.648;2023-07-28T11:10:16;3.40;;;2.87;;
8466;SDS011;4270;48.148;11.648;2023-07-28T11:12:44;3.07;;;2.77;;
8466;SDS011;4270;48.148;11.648;2023-07-28T11:15:10;2.70;;;2.43;;
8466;SDS011;4270;48.148;11.648;2023-07-28T11:17:39;3.30;;;2.70;;
8466;SDS011;4270;48.148;11.648;2023-07-28T11:20:18;2.73;;;2.53;;
8466;SDS011;4270;48.148;11.648;2023-07-28T11:22:51;3.00;;;2.60;;
8466;SDS011;4270;48.148;11.648;2023-07-28T11:25:17;3.27;;;2.97;;
8466;SDS011;4270;48.148;11.648;2023-07-28T11:27:42;3.63;;;3.00;;
8466;SDS011;4270;48.148;11.648;2023-07-28T11:30:08;3.30;;;2.60;;
8466;SDS011;4270;48.148;11.648;2023-07-28T11:32:35;2.87;;;2.57;;
8466;SDS011;4270;48.148;11.648;2023-07-28T11:35:04;3.13;;;2.60;;
8466;SDS011;4270;48.148;11.648;2023-07-28T11:37:30;3.20;;;2.23;;
8466;SDS011;4270;48.148;11.648;2023-07-28T11:39:56;4.10;;;2.57;;
8466;SDS011;4270;48.148;11.648;2023-07-28T11:42:22;3.23;;;2.40;;
8466;SDS011;4270;48.148;11.648;2023-07-28T11:44:47;2.90;;;2.53;;
8466;SDS011;4270;48.148;11.648;2023-07-28T11:47:16;2.90;;;2.53;;
8466;SDS011;4270;48.148;11.648;2023-07-28T11:49:45;6.43;;;2.77;;
8466;SDS011;4270;48.148;11.648;2023-07-28T11:52:11;2.67;;;2.47;;
8466;SDS011;4270;48.148;11.648;2023-07-28T11:54:36;4.47;;;2.63;;
8466;SDS011;4270;48.148;11.648;2023-07-28T11:57:01;5.47;;;2.97;;
8466;SDS011;4270;48.148;11.648;2023-07-28T11:59:27;4.87;;;2.80;;
8466;SDS011;4270;48.148;11.648;2023-07-28T12:04:25;2.77;;;2.53;;
8466;SDS011;4270;48.148;11.648;2023-07-28T12:07:01;3.30;;;2.67;;
8466;SDS011;4270;48.148;11.648;2023-07-28T12:09:28;3.37;;;2.60;;
8466;SDS011;4270;48.148;11.648;2023-07-28T12:11:53;3.30;;;3.00;;
8466;SDS011;4270;48.148;11.648;2023-07-28T12:14:30;3.20;;;2.70;;
8466;SDS011;4270;48.148;11.648;2023-07-28T12:16:55;2.90;;;2.43;;
8466;SDS011;4270;48.148;11.648;2023-07-28T12:19:21;3.20;;;2.90;;
8466;SDS011;4270;48.148;11.648;2023-07-28T12:21:46;2.73;;;2.53;;
8466;SDS011;4270;48.148;11.648;2023-07-28T12:24:11;3.57;;;2.73;;
8466;SDS011;4270;48.148;11.648;2023-07-28T12:26:36;3.10;;;2.80;;
8466;SDS011;4270;48.148;11.648;2023-07-28T12:29:01;3.03;;;2.70;;
8466;SDS011;4270;48.148;11.648;2023-07-28T12:31:27;3.87;;;3.13;;
8466;SDS011;4270;48.148;11.648;2023-07-28T12:33:52;2.53;;;2.33;;
8466;SDS011;4270;48.148;11.648;2023-07-28T12:36:18;2.80;;;2.53;;
8466;SDS011;4270;48.148;11.648;2023-07-28T12:38:43;2.90;;;2.63;;
8466;SDS011;4270;48.148;11.648;2023-07-28T12:41:08;4.30;;;2.77;;
8466;SDS011;4270;48.148;11.648;2023-07-28T12:43:34;2.90;;;2.60;;
8466;SDS011;4270;48.148;11.648;2023-07-28T12:45:59;3.33;;;2.73;;
8466;SDS011;4270;48.148;11.648;2023-07-28T12:48:24;2.63;;;2.43;;
8466;SDS011;4270;48.148;11.648;2023-07-28T12:50:50;2.90;;;2.60;;
8466;SDS011;4270;48.148;11.648;2023-07-28T12:53:16;2.50;;;2.30;;
8466;SDS011;4270;48.148;11.648;2023-07-28T12:55:41;2.60;;;2.40;;
8466;SDS011;4270;48.148;11.648;2023-07-28T12:58:06;3.97;;;2.80;;
8466;SDS011;4270;48.148;11.648;2023-07-28T13:00:31;3.03;;;2.73;;
8466;SDS011;4270;48.148;11.648;2023-07-28T13:02:57;4.57;;;2.60;;
8466;SDS011;4270;48.148;11.648;2023-07-28T13:05:22;3.90;;;2.50;;
8466;SDS011;4270;48.148;11.648;2023-07-28T13:07:47;2.60;;;2.40;;
8466;SDS011;4270;48.148;11.648;2023-07-28T13:10:13;3.80;;;3.03;;
8466;SDS011;4270;48.148;11.648;2023-07-28T13:12:38;3.37;;;2.50;;
8466;SDS011;4270;48.148;11.648;2023-07-28T13:15:03;2.63;;;2.43;;
8466;SDS011;4270;48.148;11.648;2023-07-28T13:17:29;2.83;;;2.60;;
8466;SDS011;4270;48.148;11.648;2023-07-28T13:19:54;3.30;;;2.97;;
8466;SDS011;4270;48.148;11.648;2023-07-28T13:22:22;3.37;;;3.07;;
8466;SDS011;4270;48.148;11.648;2023-07-28T13:24:47;2.50;;;2.30;;
8466;SDS011;4270;48.148;11.648;2023-07-28T13:27:12;3.50;;;2.83;;
8466;SDS011;4270;48.148;11.648;2023-07-28T13:29:37;3.90;;;3.33;;
8466;SDS011;4270;48.148;11.648;2023-07-28T13:32:02;3.03;;;2.40;;
8466;SDS011;4270;48.148;11.648;2023-07-28T13:34:28;2.60;;;2.33;;
8466;SDS011;4270;48.148;11.648;2023-07-28T13:36:56;2.83;;;2.63;;
8466;SDS011;4270;48.148;11.648;2023-07-28T13:39:22;3.07;;;2.77;;
8466;SDS011;4270;48.148;11.648;2023-07-28T13:41:47;2.90;;;2.57;;
8466;SDS011;4270;48.148;11.648;2023-07-28T13:44:12;2.80;;;2.60;;
8466;SDS011;4270;48.148;11.648;2023-07-28T13:46:38;3.93;;;3.03;;
8466;SDS011;4270;48.148;11.648;2023-07-28T13:49:03;3.73;;;3.00;;
8466;SDS011;4270;48.148;11.648;2023-07-28T13:51:28;3.33;;;2.87;;
8466;SDS011;4270;48.148;11.648;2023-07-28T13:53:54;3.10;;;2.80;;
8466;SDS011;4270;48.148;11.648;2023-07-28T13:56:19;2.90;;;2.40;;
8466;SDS011;4270;48.148;11.648;2023-07-28T13:58:44;4.10;;;2.57;;
8466;SDS011;4270;48.148;11.648;2023-07-28T14:01:10;3.70;;;3.00;;
8466;SDS011;4270;48.148;11.648;2023-07-28T14:03:35;3.27;;;2.73;;
8466;SDS011;4270;48.148;11.648;2023-07-28T14:06:00;4.93;;;2.70;;
8466;SDS011;4270;48.148;11.648;2023-07-28T14:08:25;3.03;;;2.70;;
8466;SDS011;4270;48.148;11.648;2023-07-28T14:10:52;3.00;;;2.70;;
8466;SDS011;4270;48.148;11.648;2023-07-28T14:13:18;3.33;;;2.63;;
8466;SDS011;4270;48.148;11.648;2023-07-28T14:15:43;3.00;;;2.70;;
8466;SDS011;4270;48.148;11.648;2023-07-28T14:18:08;2.93;;;2.60;;
8466;SDS011;4270;48.148;11.648;2023-07-28T14:20:34;2.73;;;2.50;;
8466;SDS011;4270;48.148;11.648;2023-07-28T14:22:59;3.00;;;2.70;;
8466;SDS011;4270;48.148;11.648;2023-07-28T14:25:25;4.40;;;3.00;;
8466;SDS011;4270;48.148;11.648;2023-07-28T14:27:51;2.93;;;2.67;;
8466;SDS011;4270;48.148;11.648;2023-07-28T14:30:16;5.00;;;2.70;;
8466;SDS011;4270;48.148;11.648;2023-07-28T14:32:41;5.00;;;2.50;;
8466;SDS011;4270;48.148;11.648;2023-07-28T14:35:06;2.77;;;2.50;;
8466;SDS011;4270;48.148;11.648;2023-07-28T14:37:32;3.37;;;2.77;;
8466;SDS011;4270;48.148;11.648;2023-07-28T14:39:57;3.80;;;3.03;;
8466;SDS011;4270;48.148;11.648;2023-07-28T14:42:22;3.53;;;2.77;;
8466;SDS011;4270;48.148;11.648;2023-07-28T14:44:47;2.57;;;2.27;;
8466;SDS011;4270;48.148;11.648;2023-07-28T14:47:13;3.50;;;3.10;;
8466;SDS011;4270;48.148;11.648;2023-07-28T14:49:38;4.20;;;3.77;;
8466;SDS011;4270;48.148;11.648;2023-07-28T14:52:03;7.40;;;3.20;;
8466;SDS011;4270;48.148;11.648;2023-07-28T14:54:28;2.80;;;2.60;;
8466;SDS011;4270;48.148;11.648;2023-07-28T14:56:54;3.40;;;3.00;;
8466;SDS011;4270;48.148;11.648;2023-07-28T14:59:19;5.40;;;2.60;;
8466;SDS011;4270;48.148;11.648;2023-07-28T15:01:45;6.80;;;3.00;;